Time;durP1;ratioP1;P1;durP2;ratioP2;P2;SDS_P1;SDS_P2;PMS_P1;PMS_P2;Temp;Humidity;BMP_temperature;BMP_pressure;BME280_temperature;BME280_humidity;BME280_pressure;Samples;Min_cycle;Max_cycle;Signal;HPM_P1;HPM_P2
2019/05/04 00:01:10;;;;;;;23.95;17;;;;;;;6.53;86.54004;94490.47;;;;
2019/05/04 00:02:24;;;;;;;23.95;17;;;;;;;6.53;86.54004;94490.47;;;;
2019/05/04 00:03:26;;;;;;;23.95;17;;;;;;;6.53;86.54004;94490.47;;;;
2019/05/04 00:04:27;;;;;;;23.95;17;;;;;;;6.53;86.54004;94490.47;;;;
2019/05/04 00:05:34;;;;;;;23.95;17;;;;;;;6.53;86.54004;94490.47;;;;
2019/05/04 00:06:35;;;;;;;22.75;15.85;;;;;;;6.69;86.77441;94479.06;;;;
2019/05/04 00:07:36;;;;;;;22.75;15.85;;;;;;;6.69;86.77441;94479.06;;;;
2019/05/04 00:08:37;;;;;;;22.75;15.85;;;;;;;6.69;86.77441;94479.06;;;;
2019/05/04 00:09:38;;;;;;;22.75;15.85;;;;;;;6.69;86.77441;94479.06;;;;
2019/05/04 00:10:39;;;;;;;22.75;15.85;;;;;;;6.69;86.77441;94479.06;;;;
2019/05/04 00:11:41;;;;;;;22.75;15.85;;;;;;;6.69;86.77441;94479.06;;;;
2019/05/04 00:12:42;;;;;;;22.75;15.85;;;;;;;6.69;86.77441;94479.06;;;;
2019/05/04 00:13:43;;;;;;;22.75;15.85;;;;;;;6.69;86.77441;94479.06;;;;
2019/05/04 00:14:44;;;;;;;22.75;15.85;;;;;;;6.69;86.77441;94479.06;;;;
2019/05/04 00:15:45;;;;;;;22.75;15.85;;;;;;;6.69;86.77441;94479.06;;;;
2019/05/04 00:16:46;;;;;;;21.1;15.95;;;;;;;6.49;86.76465;94458.99;;;;
2019/05/04 00:17:47;;;;;;;21.1;15.95;;;;;;;6.49;86.76465;94458.99;;;;
2019/05/04 00:18:48;;;;;;;21.1;15.95;;;;;;;6.49;86.76465;94458.99;;;;
2019/05/04 00:19:49;;;;;;;21.1;15.95;;;;;;;6.49;86.76465;94458.99;;;;
2019/05/04 00:20:50;;;;;;;21.1;15.95;;;;;;;6.49;86.76465;94458.99;;;;
2019/05/04 00:21:51;;;;;;;21.1;15.95;;;;;;;6.49;86.76465;94458.99;;;;
2019/05/04 00:22:52;;;;;;;21.1;15.95;;;;;;;6.49;86.76465;94458.99;;;;
2019/05/04 00:23:53;;;;;;;21.1;15.95;;;;;;;6.49;86.76465;94458.99;;;;
2019/05/04 00:24:54;;;;;;;21.1;15.95;;;;;;;6.49;86.76465;94458.99;;;;
2019/05/04 00:25:56;;;;;;;21.1;15.95;;;;;;;6.49;86.76465;94458.99;;;;
2019/05/04 00:26:57;;;;;;;21.1;15.95;;;;;;;6.49;86.76465;94458.99;;;;
2019/05/04 00:27:58;;;;;;;19.65;14.55;;;;;;;6.21;86.89844;94448.08;;;;
2019/05/04 00:28:59;;;;;;;19.65;14.55;;;;;;;6.21;86.89844;94448.08;;;;
2019/05/04 00:30:00;;;;;;;19.65;14.55;;;;;;;6.21;86.89844;94448.08;;;;
2019/05/04 00:31:01;;;;;;;19.65;14.55;;;;;;;6.21;86.89844;94448.08;;;;
2019/05/04 00:32:03;;;;;;;19.65;14.55;;;;;;;6.21;86.89844;94448.08;;;;
2019/05/04 00:33:11;;;;;;;19.65;14.55;;;;;;;6.21;86.89844;94448.08;;;;
2019/05/04 00:34:18;;;;;;;19.65;14.55;;;;;;;6.21;86.89844;94448.08;;;;
2019/05/04 00:35:55;;;;;;;19.65;14.55;;;;;;;6.21;86.89844;94448.08;;;;
2019/05/04 00:36:59;;;;;;;19.65;14.55;;;;;;;6.21;86.89844;94448.08;;;;
2019/05/04 00:38:01;;;;;;;19.65;14.55;;;;;;;6.21;86.89844;94448.08;;;;
2019/05/04 00:39:32;;;;;;;19.65;14.55;;;;;;;6.21;86.89844;94448.08;;;;
2019/05/04 00:40:34;;;;;;;19.65;14.55;;;;;;;6.21;86.89844;94448.08;;;;
2019/05/04 00:41:35;;;;;;;19.65;14.55;;;;;;;6.21;86.89844;94448.08;;;;
2019/05/04 00:42:36;;;;;;;19.65;14.55;;;;;;;6.21;86.89844;94448.08;;;;
2019/05/04 00:43:37;;;;;;;19.65;14.55;;;;;;;6.21;86.89844;94448.08;;;;
2019/05/04 00:44:38;;;;;;;19.65;14.55;;;;;;;6.21;86.89844;94448.08;;;;
2019/05/04 00:45:39;;;;;;;19.65;14.55;;;;;;;6.21;86.89844;94448.08;;;;
2019/05/04 00:46:40;;;;;;;19.65;14.55;;;;;;;6.21;86.89844;94448.08;;;;
2019/05/04 00:47:41;;;;;;;19.65;14.55;;;;;;;6.21;86.89844;94448.08;;;;
2019/05/04 00:48:42;;;;;;;19.65;14.55;;;;;;;6.21;86.89844;94448.08;;;;
2019/05/04 00:49:43;;;;;;;19.65;14.55;;;;;;;6.21;86.89844;94448.08;;;;
2019/05/04 00:50:44;;;;;;;19.65;14.55;;;;;;;6.21;86.89844;94448.08;;;;
2019/05/04 00:51:45;;;;;;;19.65;14.55;;;;;;;6.21;86.89844;94448.08;;;;
2019/05/04 00:52:46;;;;;;;19.65;14.55;;;;;;;6.21;86.89844;94448.08;;;;
2019/05/04 00:53:47;;;;;;;19.65;14.55;;;;;;;6.21;86.89844;94448.08;;;;
2019/05/04 00:54:49;;;;;;;19.65;14.55;;;;;;;6.21;86.89844;94448.08;;;;
2019/05/04 00:55:54;;;;;;;19.65;14.55;;;;;;;6.21;86.89844;94448.08;;;;
2019/05/04 00:56:55;;;;;;;19.65;14.55;;;;;;;6.21;86.89844;94448.08;;;;
2019/05/04 00:57:56;;;;;;;19.65;14.55;;;;;;;6.21;86.89844;94448.08;;;;
2019/05/04 00:58:58;;;;;;;19.65;14.55;;;;;;;6.21;86.89844;94448.08;;;;
2019/05/04 00:59:59;;;;;;;21.3;14.3;;;;;;;5.29;87.25391;94416.25;;;;
2019/05/04 01:01:12;;;;;;;21.3;14.3;;;;;;;5.29;87.25391;94416.25;;;;
2019/05/04 01:02:46;;;;;;;21.3;14.3;;;;;;;5.29;87.25391;94416.25;;;;
2019/05/04 01:03:47;;;;;;;21.3;14.3;;;;;;;5.29;87.25391;94416.25;;;;
2019/05/04 01:04:48;;;;;;;21.3;14.3;;;;;;;5.29;87.25391;94416.25;;;;
2019/05/04 01:05:49;;;;;;;21.3;14.3;;;;;;;5.29;87.25391;94416.25;;;;
2019/05/04 01:06:50;;;;;;;21.3;14.3;;;;;;;5.29;87.25391;94416.25;;;;
2019/05/04 01:07:51;;;;;;;21.3;14.3;;;;;;;5.29;87.25391;94416.25;;;;
2019/05/04 01:08:53;;;;;;;21.3;14.3;;;;;;;5.29;87.25391;94416.25;;;;
2019/05/04 01:09:54;;;;;;;24.55;16.5;;;;;;;5.11;87.55078;94408.37;;;;
2019/05/04 01:10:55;;;;;;;24.55;16.5;;;;;;;5.11;87.55078;94408.37;;;;
2019/05/04 01:11:56;;;;;;;24.55;16.5;;;;;;;5.11;87.55078;94408.37;;;;
2019/05/04 01:12:57;;;;;;;24.55;16.5;;;;;;;5.11;87.55078;94408.37;;;;
2019/05/04 01:13:58;;;;;;;24.55;16.5;;;;;;;5.11;87.55078;94408.37;;;;
2019/05/04 01:14:59;;;;;;;24.55;16.5;;;;;;;5.11;87.55078;94408.37;;;;
2019/05/04 01:16:00;;;;;;;24.55;16.5;;;;;;;5.11;87.55078;94408.37;;;;
2019/05/04 01:17:02;;;;;;;24.55;16.5;;;;;;;5.11;87.55078;94408.37;;;;
2019/05/04 01:18:03;;;;;;;24.55;16.5;;;;;;;5.11;87.55078;94408.37;;;;
2019/05/04 01:19:04;;;;;;;24.55;16.5;;;;;;;5.11;87.55078;94408.37;;;;
2019/05/04 01:20:05;;;;;;;24.55;16.5;;;;;;;5.11;87.55078;94408.37;;;;
2019/05/04 01:21:07;;;;;;;23.35;16.15;;;;;;;4.86;87.64844;94391.97;;;;
2019/05/04 01:22:08;;;;;;;23.35;16.15;;;;;;;4.86;87.64844;94391.97;;;;
2019/05/04 01:23:09;;;;;;;23.35;16.15;;;;;;;4.86;87.64844;94391.97;;;;
2019/05/04 01:24:10;;;;;;;23.35;16.15;;;;;;;4.86;87.64844;94391.97;;;;
2019/05/04 01:25:11;;;;;;;23.35;16.15;;;;;;;4.86;87.64844;94391.97;;;;
2019/05/04 01:26:12;;;;;;;23.35;16.15;;;;;;;4.86;87.64844;94391.97;;;;
2019/05/04 01:27:13;;;;;;;23.35;16.15;;;;;;;4.86;87.64844;94391.97;;;;
2019/05/04 01:28:14;;;;;;;23.35;16.15;;;;;;;4.86;87.64844;94391.97;;;;
2019/05/04 01:29:16;;;;;;;23.35;16.15;;;;;;;4.86;87.64844;94391.97;;;;
2019/05/04 01:30:17;;;;;;;23.35;16.15;;;;;;;4.86;87.64844;94391.97;;;;
2019/05/04 01:31:18;;;;;;;23.9;15.5;;;;;;;4.71;87.78613;94372.81;;;;
2019/05/04 01:32:19;;;;;;;23.9;15.5;;;;;;;4.71;87.78613;94372.81;;;;
2019/05/04 01:33:56;;;;;;;23.9;15.5;;;;;;;4.71;87.78613;94372.81;;;;
2019/05/04 01:35:00;;;;;;;23.9;15.5;;;;;;;4.71;87.78613;94372.81;;;;
2019/05/04 01:36:02;;;;;;;23.9;15.5;;;;;;;4.71;87.78613;94372.81;;;;
2019/05/04 01:37:24;;;;;;;23.9;15.5;;;;;;;4.71;87.78613;94372.81;;;;
2019/05/04 01:38:29;;;;;;;23.9;15.5;;;;;;;4.71;87.78613;94372.81;;;;
2019/05/04 01:39:40;;;;;;;23.9;15.5;;;;;;;4.71;87.78613;94372.81;;;;
2019/05/04 01:40:47;;;;;;;23.9;15.5;;;;;;;4.71;87.78613;94372.81;;;;
2019/05/04 01:41:48;;;;;;;23.45;15.05;;;;;;;4.48;87.81348;94361.83;;;;
2019/05/04 01:42:50;;;;;;;23.45;15.05;;;;;;;4.48;87.81348;94361.83;;;;
2019/05/04 01:43:51;;;;;;;23.45;15.05;;;;;;;4.48;87.81348;94361.83;;;;
2019/05/04 01:44:52;;;;;;;23.45;15.05;;;;;;;4.48;87.81348;94361.83;;;;
2019/05/04 01:45:54;;;;;;;23.45;15.05;;;;;;;4.48;87.81348;94361.83;;;;
2019/05/04 01:46:55;;;;;;;23.45;15.05;;;;;;;4.48;87.81348;94361.83;;;;
2019/05/04 01:47:56;;;;;;;23.45;15.05;;;;;;;4.48;87.81348;94361.83;;;;
2019/05/04 01:48:57;;;;;;;23.45;15.05;;;;;;;4.48;87.81348;94361.83;;;;
2019/05/04 01:49:59;;;;;;;23.45;15.05;;;;;;;4.48;87.81348;94361.83;;;;
2019/05/04 01:51:00;;;;;;;23.45;15.05;;;;;;;4.48;87.81348;94361.83;;;;
2019/05/04 01:52:01;;;;;;;23.45;15.05;;;;;;;4.48;87.81348;94361.83;;;;
2019/05/04 01:53:22;;;;;;;26.55;17.3;;;;;;;4.36;88.01074;94344.9;;;;
2019/05/04 01:54:24;;;;;;;26.55;17.3;;;;;;;4.36;88.01074;94344.9;;;;
2019/05/04 01:55:25;;;;;;;26.55;17.3;;;;;;;4.36;88.01074;94344.9;;;;
2019/05/04 01:56:27;;;;;;;26.55;17.3;;;;;;;4.36;88.01074;94344.9;;;;
2019/05/04 01:57:33;;;;;;;26.55;17.3;;;;;;;4.36;88.01074;94344.9;;;;
2019/05/04 01:58:35;;;;;;;26.55;17.3;;;;;;;4.36;88.01074;94344.9;;;;
2019/05/04 01:59:41;;;;;;;26.55;17.3;;;;;;;4.36;88.01074;94344.9;;;;
2019/05/04 02:00:42;;;;;;;26.55;17.3;;;;;;;4.36;88.01074;94344.9;;;;
2019/05/04 02:01:44;;;;;;;26.55;17.3;;;;;;;4.36;88.01074;94344.9;;;;
2019/05/04 02:02:45;;;;;;;26.55;17.3;;;;;;;4.36;88.01074;94344.9;;;;
2019/05/04 02:03:46;;;;;;;24.8;15.95;;;;;;;4.24;88.1123;94341.72;;;;
2019/05/04 02:04:47;;;;;;;24.8;15.95;;;;;;;4.24;88.1123;94341.72;;;;
2019/05/04 02:05:49;;;;;;;24.8;15.95;;;;;;;4.24;88.1123;94341.72;;;;
2019/05/04 02:06:50;;;;;;;24.8;15.95;;;;;;;4.24;88.1123;94341.72;;;;
2019/05/04 02:07:51;;;;;;;24.8;15.95;;;;;;;4.24;88.1123;94341.72;;;;
2019/05/04 02:08:52;;;;;;;24.8;15.95;;;;;;;4.24;88.1123;94341.72;;;;
2019/05/04 02:09:54;;;;;;;24.8;15.95;;;;;;;4.24;88.1123;94341.72;;;;
2019/05/04 02:10:55;;;;;;;24.8;15.95;;;;;;;4.24;88.1123;94341.72;;;;
2019/05/04 02:11:56;;;;;;;24.8;15.95;;;;;;;4.24;88.1123;94341.72;;;;
2019/05/04 02:12:58;;;;;;;24.8;15.95;;;;;;;4.24;88.1123;94341.72;;;;
2019/05/04 02:13:59;;;;;;;24.8;15.95;;;;;;;4.24;88.1123;94341.72;;;;
2019/05/04 02:15:00;;;;;;;24.8;15.95;;;;;;;4.24;88.1123;94341.72;;;;
2019/05/04 02:16:01;;;;;;;24.8;15.95;;;;;;;4.24;88.1123;94341.72;;;;
2019/05/04 02:17:02;;;;;;;24.8;15.95;;;;;;;4.24;88.1123;94341.72;;;;
2019/05/04 02:18:03;;;;;;;24.8;15.95;;;;;;;4.24;88.1123;94341.72;;;;
2019/05/04 02:19:04;;;;;;;24.8;15.95;;;;;;;4.24;88.1123;94341.72;;;;
2019/05/04 02:20:06;;;;;;;24.8;15.95;;;;;;;4.24;88.1123;94341.72;;;;
2019/05/04 02:21:07;;;;;;;24.8;15.95;;;;;;;4.24;88.1123;94341.72;;;;
2019/05/04 02:22:16;;;;;;;24.8;15.95;;;;;;;4.24;88.1123;94341.72;;;;
2019/05/04 02:23:19;;;;;;;24.8;15.95;;;;;;;4.24;88.1123;94341.72;;;;
2019/05/04 02:24:21;;;;;;;24.35;15.1;;;;;;;4.02;87.8877;94327.66;;;;
2019/05/04 02:29:37;;;;;;;24.35;15.1;;;;;;;4.02;87.8877;94327.66;;;;
2019/05/04 02:30:43;;;;;;;24.35;15.1;;;;;;;4.02;87.8877;94327.66;;;;
2019/05/04 02:31:44;;;;;;;24.35;15.1;;;;;;;4.02;87.8877;94327.66;;;;
2019/05/04 02:32:45;;;;;;;24.35;15.1;;;;;;;4.02;87.8877;94327.66;;;;
2019/05/04 02:33:46;;;;;;;24.35;15.1;;;;;;;4.02;87.8877;94327.66;;;;
2019/05/04 02:34:48;;;;;;;24.35;15.1;;;;;;;4.02;87.8877;94327.66;;;;
2019/05/04 02:35:49;;;;;;;20.45;13.8;;;;;;;3.83;88.16406;94316.11;;;;
2019/05/04 02:36:50;;;;;;;20.45;13.8;;;;;;;3.83;88.16406;94316.11;;;;
2019/05/04 02:37:51;;;;;;;20.45;13.8;;;;;;;3.83;88.16406;94316.11;;;;
2019/05/04 02:38:52;;;;;;;20.45;13.8;;;;;;;3.83;88.16406;94316.11;;;;
2019/05/04 02:39:53;;;;;;;20.45;13.8;;;;;;;3.83;88.16406;94316.11;;;;
2019/05/04 02:40:54;;;;;;;20.45;13.8;;;;;;;3.83;88.16406;94316.11;;;;
2019/05/04 02:42:52;;;;;;;20.45;13.8;;;;;;;3.83;88.16406;94316.11;;;;
2019/05/04 02:43:53;;;;;;;20.45;13.8;;;;;;;3.83;88.16406;94316.11;;;;
2019/05/04 02:44:54;;;;;;;20.45;13.8;;;;;;;3.83;88.16406;94316.11;;;;
2019/05/04 02:45:55;;;;;;;20.45;13.8;;;;;;;3.83;88.16406;94316.11;;;;
2019/05/04 02:47:00;;;;;;;20.45;13.8;;;;;;;3.83;88.16406;94316.11;;;;
2019/05/04 02:48:15;;;;;;;20.45;13.8;;;;;;;3.83;88.16406;94316.11;;;;
2019/05/04 02:49:51;;;;;;;20.45;13.8;;;;;;;3.83;88.16406;94316.11;;;;
2019/05/04 02:50:57;;;;;;;20.45;13.8;;;;;;;3.83;88.16406;94316.11;;;;
2019/05/04 02:52:00;;;;;;;20.45;13.8;;;;;;;3.83;88.16406;94316.11;;;;
2019/05/04 02:53:01;;;;;;;20.45;13.8;;;;;;;3.83;88.16406;94316.11;;;;
2019/05/04 02:54:02;;;;;;;20.45;13.8;;;;;;;3.83;88.16406;94316.11;;;;
2019/05/04 02:55:03;;;;;;;20.45;13.8;;;;;;;3.83;88.16406;94316.11;;;;
2019/05/04 02:56:05;;;;;;;20.45;13.8;;;;;;;3.83;88.16406;94316.11;;;;
2019/05/04 02:57:06;;;;;;;20.8;14;;;;;;;3.61;88.14063;94295.26;;;;
2019/05/04 02:58:07;;;;;;;20.8;14;;;;;;;3.61;88.14063;94295.26;;;;
2019/05/04 02:59:08;;;;;;;20.8;14;;;;;;;3.61;88.14063;94295.26;;;;
2019/05/04 03:00:09;;;;;;;20.8;14;;;;;;;3.61;88.14063;94295.26;;;;
2019/05/04 03:01:10;;;;;;;20.8;14;;;;;;;3.61;88.14063;94295.26;;;;
2019/05/04 03:02:11;;;;;;;20.8;14;;;;;;;3.61;88.14063;94295.26;;;;
2019/05/04 03:03:12;;;;;;;20.8;14;;;;;;;3.61;88.14063;94295.26;;;;
2019/05/04 03:04:14;;;;;;;20.8;14;;;;;;;3.61;88.14063;94295.26;;;;
2019/05/04 03:05:15;;;;;;;20.8;14;;;;;;;3.61;88.14063;94295.26;;;;
2019/05/04 03:06:16;;;;;;;20.8;14;;;;;;;3.61;88.14063;94295.26;;;;
2019/05/04 03:07:17;;;;;;;20.8;14;;;;;;;3.61;88.14063;94295.26;;;;
2019/05/04 03:08:18;;;;;;;20.8;14;;;;;;;3.61;88.14063;94295.26;;;;
2019/05/04 03:09:19;;;;;;;20.8;14;;;;;;;3.61;88.14063;94295.26;;;;
2019/05/04 03:10:20;;;;;;;20.8;14;;;;;;;3.61;88.14063;94295.26;;;;
2019/05/04 03:11:22;;;;;;;20.8;14;;;;;;;3.61;88.14063;94295.26;;;;
2019/05/04 03:12:23;;;;;;;20.8;14;;;;;;;3.61;88.14063;94295.26;;;;
2019/05/04 03:13:24;;;;;;;20.8;14;;;;;;;3.61;88.14063;94295.26;;;;
2019/05/04 03:14:25;;;;;;;20.8;14;;;;;;;3.61;88.14063;94295.26;;;;
2019/05/04 03:15:26;;;;;;;20.8;14;;;;;;;3.61;88.14063;94295.26;;;;
2019/05/04 03:16:27;;;;;;;20.8;14;;;;;;;3.61;88.14063;94295.26;;;;
2019/05/04 03:17:35;;;;;;;20.8;14;;;;;;;3.61;88.14063;94295.26;;;;
2019/05/04 03:18:42;;;;;;;21.5;14.3;;;;;;;3.3;88.49414;94288.72;;;;
2019/05/04 03:19:56;;;;;;;21.5;14.3;;;;;;;3.3;88.49414;94288.72;;;;
2019/05/04 03:24:24;;;;;;;21.5;14.3;;;;;;;3.3;88.49414;94288.72;;;;
2019/05/04 03:25:25;;;;;;;21.5;14.3;;;;;;;3.3;88.49414;94288.72;;;;
2019/05/04 03:26:26;;;;;;;21.5;14.3;;;;;;;3.3;88.49414;94288.72;;;;
2019/05/04 03:27:27;;;;;;;21.5;14.3;;;;;;;3.3;88.49414;94288.72;;;;
2019/05/04 03:28:28;;;;;;;22.85;15.45;;;;;;;3.21;88.52832;94281.09;;;;
2019/05/04 03:29:30;;;;;;;22.85;15.45;;;;;;;3.21;88.52832;94281.09;;;;
2019/05/04 03:30:34;;;;;;;22.85;15.45;;;;;;;3.21;88.52832;94281.09;;;;
2019/05/04 03:31:35;;;;;;;22.85;15.45;;;;;;;3.21;88.52832;94281.09;;;;
2019/05/04 03:32:36;;;;;;;22.85;15.45;;;;;;;3.21;88.52832;94281.09;;;;
2019/05/04 03:33:37;;;;;;;22.85;15.45;;;;;;;3.21;88.52832;94281.09;;;;
2019/05/04 03:34:38;;;;;;;22.85;15.45;;;;;;;3.21;88.52832;94281.09;;;;
2019/05/04 03:35:39;;;;;;;22.85;15.45;;;;;;;3.21;88.52832;94281.09;;;;
2019/05/04 03:36:40;;;;;;;22.85;15.45;;;;;;;3.21;88.52832;94281.09;;;;
2019/05/04 03:37:41;;;;;;;22.85;15.45;;;;;;;3.21;88.52832;94281.09;;;;
2019/05/04 03:38:42;;;;;;;22.85;15.45;;;;;;;3.21;88.52832;94281.09;;;;
2019/05/04 03:39:44;;;;;;;23.35;15.25;;;;;;;3.3;88.5166;94277.95;;;;
2019/05/04 03:40:45;;;;;;;23.35;15.25;;;;;;;3.3;88.5166;94277.95;;;;
2019/05/04 03:41:46;;;;;;;23.35;15.25;;;;;;;3.3;88.5166;94277.95;;;;
2019/05/04 03:42:47;;;;;;;23.35;15.25;;;;;;;3.3;88.5166;94277.95;;;;
2019/05/04 03:43:48;;;;;;;23.35;15.25;;;;;;;3.3;88.5166;94277.95;;;;
2019/05/04 03:44:51;;;;;;;23.35;15.25;;;;;;;3.3;88.5166;94277.95;;;;
2019/05/04 03:46:16;;;;;;;23.35;15.25;;;;;;;3.3;88.5166;94277.95;;;;
2019/05/04 03:47:26;;;;;;;23.35;15.25;;;;;;;3.3;88.5166;94277.95;;;;
2019/05/04 03:48:32;;;;;;;23.35;15.25;;;;;;;3.3;88.5166;94277.95;;;;
2019/05/04 03:49:37;;;;;;;25.1;15.4;;;;;;;3.3;88.37012;94265.53;;;;
2019/05/04 03:50:44;;;;;;;25.1;15.4;;;;;;;3.3;88.37012;94265.53;;;;
2019/05/04 03:51:45;;;;;;;25.1;15.4;;;;;;;3.3;88.37012;94265.53;;;;
2019/05/04 03:52:46;;;;;;;25.1;15.4;;;;;;;3.3;88.37012;94265.53;;;;
2019/05/04 03:53:47;;;;;;;25.1;15.4;;;;;;;3.3;88.37012;94265.53;;;;
2019/05/04 03:54:48;;;;;;;25.1;15.4;;;;;;;3.3;88.37012;94265.53;;;;
2019/05/04 03:55:49;;;;;;;25.1;15.4;;;;;;;3.3;88.37012;94265.53;;;;
2019/05/04 03:56:50;;;;;;;25.1;15.4;;;;;;;3.3;88.37012;94265.53;;;;
2019/05/04 03:57:51;;;;;;;25.1;15.4;;;;;;;3.3;88.37012;94265.53;;;;
2019/05/04 03:58:52;;;;;;;25.1;15.4;;;;;;;3.3;88.37012;94265.53;;;;
2019/05/04 03:59:53;;;;;;;25.1;15.4;;;;;;;3.3;88.37012;94265.53;;;;
2019/05/04 04:00:54;;;;;;;21.75;14.1;;;;;;;3.29;88.57813;94251.5;;;;
2019/05/04 04:01:55;;;;;;;21.75;14.1;;;;;;;3.29;88.57813;94251.5;;;;
2019/05/04 04:02:56;;;;;;;21.75;14.1;;;;;;;3.29;88.57813;94251.5;;;;
2019/05/04 04:03:57;;;;;;;21.75;14.1;;;;;;;3.29;88.57813;94251.5;;;;
2019/05/04 04:04:58;;;;;;;21.75;14.1;;;;;;;3.29;88.57813;94251.5;;;;
2019/05/04 04:05:59;;;;;;;21.75;14.1;;;;;;;3.29;88.57813;94251.5;;;;
2019/05/04 04:07:00;;;;;;;21.75;14.1;;;;;;;3.29;88.57813;94251.5;;;;
2019/05/04 04:08:01;;;;;;;21.75;14.1;;;;;;;3.29;88.57813;94251.5;;;;
2019/05/04 04:09:03;;;;;;;21.75;14.1;;;;;;;3.29;88.57813;94251.5;;;;
2019/05/04 04:10:05;;;;;;;21.75;14.1;;;;;;;3.29;88.57813;94251.5;;;;
2019/05/04 04:11:06;;;;;;;21.75;14.1;;;;;;;3.29;88.57813;94251.5;;;;
2019/05/04 04:12:07;;;;;;;21.75;14.1;;;;;;;3.29;88.57813;94251.5;;;;
2019/05/04 04:13:08;;;;;;;21.75;14.1;;;;;;;3.29;88.57813;94251.5;;;;
2019/05/04 04:14:09;;;;;;;21.75;14.1;;;;;;;3.29;88.57813;94251.5;;;;
2019/05/04 04:15:10;;;;;;;21.75;14.1;;;;;;;3.29;88.57813;94251.5;;;;
2019/05/04 04:16:21;;;;;;;21.75;14.1;;;;;;;3.29;88.57813;94251.5;;;;
2019/05/04 04:18:00;;;;;;;21.75;14.1;;;;;;;3.29;88.57813;94251.5;;;;
2019/05/04 04:19:02;;;;;;;21.75;14.1;;;;;;;3.29;88.57813;94251.5;;;;
2019/05/04 04:20:03;;;;;;;21.75;14.1;;;;;;;3.29;88.57813;94251.5;;;;
2019/05/04 04:21:04;;;;;;;21.75;14.1;;;;;;;3.29;88.57813;94251.5;;;;
2019/05/04 04:22:05;;;;;;;25.25;16.35;;;;;;;3.34;88.78613;94242.32;;;;
2019/05/04 04:23:06;;;;;;;25.25;16.35;;;;;;;3.34;88.78613;94242.32;;;;
2019/05/04 04:24:08;;;;;;;25.25;16.35;;;;;;;3.34;88.78613;94242.32;;;;
2019/05/04 04:25:13;;;;;;;25.25;16.35;;;;;;;3.34;88.78613;94242.32;;;;
2019/05/04 04:26:40;;;;;;;25.25;16.35;;;;;;;3.34;88.78613;94242.32;;;;
2019/05/04 04:27:42;;;;;;;25.25;16.35;;;;;;;3.34;88.78613;94242.32;;;;
2019/05/04 04:28:43;;;;;;;25.25;16.35;;;;;;;3.34;88.78613;94242.32;;;;
2019/05/04 04:29:45;;;;;;;25.25;16.35;;;;;;;3.34;88.78613;94242.32;;;;
2019/05/04 04:30:46;;;;;;;25.25;16.35;;;;;;;3.34;88.78613;94242.32;;;;
2019/05/04 04:31:47;;;;;;;25.25;16.35;;;;;;;3.34;88.78613;94242.32;;;;
2019/05/04 04:32:48;;;;;;;25.25;16.35;;;;;;;3.34;88.78613;94242.32;;;;
2019/05/04 04:33:49;;;;;;;25.25;16.35;;;;;;;3.34;88.78613;94242.32;;;;
2019/05/04 04:34:50;;;;;;;25.25;16.35;;;;;;;3.34;88.78613;94242.32;;;;
2019/05/04 04:35:51;;;;;;;25.25;16.35;;;;;;;3.34;88.78613;94242.32;;;;
2019/05/04 04:36:52;;;;;;;25.25;16.35;;;;;;;3.34;88.78613;94242.32;;;;
2019/05/04 04:37:53;;;;;;;25.25;16.35;;;;;;;3.34;88.78613;94242.32;;;;
2019/05/04 04:38:54;;;;;;;25.25;16.35;;;;;;;3.34;88.78613;94242.32;;;;
2019/05/04 04:39:55;;;;;;;25.25;16.35;;;;;;;3.34;88.78613;94242.32;;;;
2019/05/04 04:40:56;;;;;;;25.25;16.35;;;;;;;3.34;88.78613;94242.32;;;;
2019/05/04 04:41:57;;;;;;;25.25;16.35;;;;;;;3.34;88.78613;94242.32;;;;
2019/05/04 04:42:58;;;;;;;25.25;16.35;;;;;;;3.34;88.78613;94242.32;;;;
2019/05/04 04:44:00;;;;;;;25.25;16.35;;;;;;;3.34;88.78613;94242.32;;;;
2019/05/04 04:45:01;;;;;;;25.25;16.35;;;;;;;3.34;88.78613;94242.32;;;;
2019/05/04 04:46:02;;;;;;;25.25;16.35;;;;;;;3.34;88.78613;94242.32;;;;
2019/05/04 04:47:03;;;;;;;25.25;16.35;;;;;;;3.34;88.78613;94242.32;;;;
2019/05/04 04:48:04;;;;;;;25.25;16.35;;;;;;;3.34;88.78613;94242.32;;;;
2019/05/04 04:49:05;;;;;;;25.25;16.35;;;;;;;3.34;88.78613;94242.32;;;;
2019/05/04 04:50:06;;;;;;;25.25;16.35;;;;;;;3.34;88.78613;94242.32;;;;
2019/05/04 04:51:07;;;;;;;25.25;16.35;;;;;;;3.34;88.78613;94242.32;;;;
2019/05/04 04:52:08;;;;;;;25.25;16.35;;;;;;;3.34;88.78613;94242.32;;;;
2019/05/04 04:53:10;;;;;;;25.25;16.35;;;;;;;3.34;88.78613;94242.32;;;;
2019/05/04 04:54:11;;;;;;;25.25;16.35;;;;;;;3.34;88.78613;94242.32;;;;
2019/05/04 04:55:12;;;;;;;25.25;16.35;;;;;;;3.34;88.78613;94242.32;;;;
2019/05/04 04:56:13;;;;;;;25.25;16.35;;;;;;;3.34;88.78613;94242.32;;;;
2019/05/04 04:57:24;;;;;;;25.25;16.35;;;;;;;3.34;88.78613;94242.32;;;;
2019/05/04 04:58:32;;;;;;;25.25;16.35;;;;;;;3.34;88.78613;94242.32;;;;
2019/05/04 05:04:42;;;;;;;25.6;16;;;;;;;4.04;88.74316;94247.22;;;;
2019/05/04 05:05:43;;;;;;;25.6;16;;;;;;;4.04;88.74316;94247.22;;;;
2019/05/04 05:06:44;;;;;;;25.6;16;;;;;;;4.04;88.74316;94247.22;;;;
2019/05/04 05:07:46;;;;;;;25.6;16;;;;;;;4.04;88.74316;94247.22;;;;
2019/05/04 05:08:47;;;;;;;25.6;16;;;;;;;4.04;88.74316;94247.22;;;;
2019/05/04 05:09:48;;;;;;;25.6;16;;;;;;;4.04;88.74316;94247.22;;;;
2019/05/04 05:10:49;;;;;;;25.6;16;;;;;;;4.04;88.74316;94247.22;;;;
2019/05/04 05:11:50;;;;;;;25.6;16;;;;;;;4.04;88.74316;94247.22;;;;
2019/05/04 05:12:51;;;;;;;25.6;16;;;;;;;4.04;88.74316;94247.22;;;;
2019/05/04 05:13:52;;;;;;;25.6;16;;;;;;;4.04;88.74316;94247.22;;;;
2019/05/04 05:14:53;;;;;;;23.6;15.55;;;;;;;4.54;88.56055;94258.56;;;;
2019/05/04 05:15:54;;;;;;;23.6;15.55;;;;;;;4.54;88.56055;94258.56;;;;
2019/05/04 05:16:55;;;;;;;23.6;15.55;;;;;;;4.54;88.56055;94258.56;;;;
2019/05/04 05:17:56;;;;;;;23.6;15.55;;;;;;;4.54;88.56055;94258.56;;;;
2019/05/04 05:18:57;;;;;;;23.6;15.55;;;;;;;4.54;88.56055;94258.56;;;;
2019/05/04 05:19:58;;;;;;;23.6;15.55;;;;;;;4.54;88.56055;94258.56;;;;
2019/05/04 05:21:04;;;;;;;23.6;15.55;;;;;;;4.54;88.56055;94258.56;;;;
2019/05/04 05:22:06;;;;;;;23.6;15.55;;;;;;;4.54;88.56055;94258.56;;;;
2019/05/04 05:23:07;;;;;;;23.6;15.55;;;;;;;4.54;88.56055;94258.56;;;;
2019/05/04 05:24:08;;;;;;;23.6;15.55;;;;;;;4.54;88.56055;94258.56;;;;
2019/05/04 05:25:09;;;;;;;23.95;16.8;;;;;;;5.24;88.10352;94259.68;;;;
2019/05/04 05:26:10;;;;;;;23.95;16.8;;;;;;;5.24;88.10352;94259.68;;;;
2019/05/04 05:27:11;;;;;;;23.95;16.8;;;;;;;5.24;88.10352;94259.68;;;;
2019/05/04 05:28:12;;;;;;;23.95;16.8;;;;;;;5.24;88.10352;94259.68;;;;
2019/05/04 05:29:13;;;;;;;23.95;16.8;;;;;;;5.24;88.10352;94259.68;;;;
2019/05/04 05:30:14;;;;;;;23.95;16.8;;;;;;;5.24;88.10352;94259.68;;;;
2019/05/04 05:31:19;;;;;;;23.95;16.8;;;;;;;5.24;88.10352;94259.68;;;;
2019/05/04 05:33:23;;;;;;;23.95;16.8;;;;;;;5.24;88.10352;94259.68;;;;
2019/05/04 05:35:32;;;;;;;23.95;16.8;;;;;;;5.24;88.10352;94259.68;;;;
2019/05/04 05:36:33;;;;;;;23.7;16.35;;;;;;;5.72;87.81152;94245.65;;;;
2019/05/04 05:37:35;;;;;;;23.7;16.35;;;;;;;5.72;87.81152;94245.65;;;;
2019/05/04 05:38:36;;;;;;;23.7;16.35;;;;;;;5.72;87.81152;94245.65;;;;
2019/05/04 05:39:37;;;;;;;23.7;16.35;;;;;;;5.72;87.81152;94245.65;;;;
2019/05/04 05:40:38;;;;;;;23.7;16.35;;;;;;;5.72;87.81152;94245.65;;;;
2019/05/04 05:41:39;;;;;;;23.7;16.35;;;;;;;5.72;87.81152;94245.65;;;;
2019/05/04 05:42:40;;;;;;;23.7;16.35;;;;;;;5.72;87.81152;94245.65;;;;
2019/05/04 05:43:41;;;;;;;23.7;16.35;;;;;;;5.72;87.81152;94245.65;;;;
2019/05/04 05:44:42;;;;;;;23.7;16.35;;;;;;;5.72;87.81152;94245.65;;;;
2019/05/04 05:46:21;;;;;;;23.7;16.35;;;;;;;5.72;87.81152;94245.65;;;;
2019/05/04 05:47:33;;;;;;;22.75;16.1;;;;;;;6.37;87.65918;94244.62;;;;
2019/05/04 05:48:41;;;;;;;22.75;16.1;;;;;;;6.37;87.65918;94244.62;;;;
2019/05/04 05:49:50;;;;;;;22.75;16.1;;;;;;;6.37;87.65918;94244.62;;;;
2019/05/04 05:50:58;;;;;;;22.75;16.1;;;;;;;6.37;87.65918;94244.62;;;;
2019/05/04 05:52:08;;;;;;;22.75;16.1;;;;;;;6.37;87.65918;94244.62;;;;
2019/05/04 05:54:18;;;;;;;22.75;16.1;;;;;;;6.37;87.65918;94244.62;;;;
2019/05/04 05:55:33;;;;;;;22.75;16.1;;;;;;;6.37;87.65918;94244.62;;;;
2019/05/04 05:56:38;;;;;;;22.75;16.1;;;;;;;6.37;87.65918;94244.62;;;;
2019/05/04 05:57:50;;;;;;;17.65;13.55;;;;;;;7.14;87.0957;94243.64;;;;
2019/05/04 05:58:58;;;;;;;17.65;13.55;;;;;;;7.14;87.0957;94243.64;;;;
2019/05/04 06:00:05;;;;;;;17.65;13.55;;;;;;;7.14;87.0957;94243.64;;;;
2019/05/04 06:01:14;;;;;;;17.65;13.55;;;;;;;7.14;87.0957;94243.64;;;;
2019/05/04 06:02:54;;;;;;;17.65;13.55;;;;;;;7.14;87.0957;94243.64;;;;
2019/05/04 06:09:18;;;;;;;14.95;12.35;;;;;;;7.78;86.68457;94246.67;;;;
2019/05/04 06:10:23;;;;;;;14.95;12.35;;;;;;;7.78;86.68457;94246.67;;;;
2019/05/04 06:11:25;;;;;;;14.95;12.35;;;;;;;7.78;86.68457;94246.67;;;;
2019/05/04 06:12:27;;;;;;;14.95;12.35;;;;;;;7.78;86.68457;94246.67;;;;
2019/05/04 06:13:37;;;;;;;14.95;12.35;;;;;;;7.78;86.68457;94246.67;;;;
2019/05/04 06:14:43;;;;;;;14.95;12.35;;;;;;;7.78;86.68457;94246.67;;;;
2019/05/04 06:15:54;;;;;;;14.95;12.35;;;;;;;7.78;86.68457;94246.67;;;;
2019/05/04 06:17:11;;;;;;;14.95;12.35;;;;;;;7.78;86.68457;94246.67;;;;
2019/05/04 06:18:14;;;;;;;14.95;12.35;;;;;;;7.78;86.68457;94246.67;;;;
2019/05/04 06:19:20;;;;;;;16.4;13.45;;;;;;;8.62;86.36328;94234.34;;;;
2019/05/04 06:20:29;;;;;;;16.4;13.45;;;;;;;8.62;86.36328;94234.34;;;;
2019/05/04 06:21:38;;;;;;;16.4;13.45;;;;;;;8.62;86.36328;94234.34;;;;
2019/05/04 06:22:47;;;;;;;16.4;13.45;;;;;;;8.62;86.36328;94234.34;;;;